createdAt,value
2018-05-18T00:01:57.452Z,7.03
2018-05-18T00:04:24.916Z,4.50
2018-05-18T00:06:52.372Z,5.03
2018-05-18T00:09:19.824Z,4.60
2018-05-18T00:11:47.346Z,5.20
2018-05-18T00:14:16.312Z,4.73
2018-05-18T00:16:43.785Z,5.53
2018-05-18T00:19:11.245Z,5.20
2018-05-18T00:21:38.705Z,6.03
2018-05-18T00:24:06.240Z,7.03
2018-05-18T00:26:33.612Z,5.40
2018-05-18T00:29:01.070Z,4.50
2018-05-18T00:31:28.520Z,5.50
2018-05-18T00:33:55.984Z,5.20
2018-05-18T00:36:23.444Z,5.83
2018-05-18T00:38:50.893Z,5.47
2018-05-18T00:41:18.336Z,5.83
2018-05-18T00:43:45.796Z,5.67
2018-05-18T00:46:13.269Z,4.77
2018-05-18T00:48:40.728Z,5.50
2018-05-18T00:51:08.184Z,5.87
2018-05-18T00:53:35.649Z,5.80
2018-05-18T00:56:03.108Z,5.80
2018-05-18T00:58:30.648Z,6.93
2018-05-18T01:00:58.104Z,6.23
2018-05-18T01:03:25.669Z,5.40
2018-05-18T01:05:53.945Z,7.10
2018-05-18T01:08:21.509Z,6.10
2018-05-18T01:10:48.973Z,6.60
2018-05-18T01:13:16.420Z,6.93
2018-05-18T01:15:43.942Z,5.13
2018-05-18T01:18:11.335Z,6.63
2018-05-18T01:23:33.360Z,6.60
2018-05-18T01:26:00.876Z,6.37
2018-05-18T01:28:28.324Z,6.20
2018-05-18T01:30:55.776Z,5.47
2018-05-18T01:33:23.236Z,5.03
2018-05-18T01:35:50.692Z,5.57
2018-05-18T01:38:18.140Z,6.83
2018-05-18T01:40:45.602Z,6.47
2018-05-18T01:43:13.060Z,5.70
2018-05-18T01:45:40.513Z,8.00
2018-05-18T01:48:07.980Z,5.80
2018-05-18T01:50:35.441Z,5.70
2018-05-18T01:53:03.656Z,6.80
2018-05-18T01:55:31.157Z,5.77
2018-05-18T01:58:00.147Z,4.80
2018-05-18T02:00:27.600Z,5.73
2018-05-18T02:02:55.062Z,8.77
2018-05-18T02:05:22.527Z,6.10
2018-05-18T02:07:50.427Z,5.90
2018-05-18T02:10:18.636Z,6.80
2018-05-18T02:12:46.089Z,5.80
2018-05-18T02:15:13.558Z,5.43
2018-05-18T02:17:41.013Z,5.93
2018-05-18T02:20:08.480Z,5.70
2018-05-18T02:22:35.937Z,5.90
2018-05-18T02:25:03.444Z,5.60
2018-05-18T02:27:30.960Z,5.53
2018-05-18T02:29:58.416Z,5.73
2018-05-18T02:32:25.888Z,6.23
2018-05-18T02:34:53.433Z,6.00
2018-05-18T02:37:20.987Z,6.47
2018-05-18T02:39:48.451Z,5.73
2018-05-18T02:42:15.892Z,6.30
2018-05-18T02:44:43.364Z,6.00
2018-05-18T02:47:10.804Z,7.30
2018-05-18T02:49:38.281Z,7.40
2018-05-18T02:52:05.741Z,5.03
2018-05-18T02:54:34.006Z,6.67
2018-05-18T02:57:01.566Z,5.30
2018-05-18T02:59:29.008Z,5.57
2018-05-18T03:01:56.479Z,7.23
2018-05-18T03:04:23.952Z,5.13
2018-05-18T03:06:51.400Z,5.50
2018-05-18T03:09:18.949Z,6.30
2018-05-18T03:11:47.927Z,6.00
2018-05-18T03:14:15.376Z,6.70
2018-05-18T03:16:42.856Z,5.73
2018-05-18T03:19:10.317Z,6.43
2018-05-18T03:21:37.783Z,5.70
2018-05-18T03:24:05.240Z,5.40
2018-05-18T03:26:32.700Z,6.37
2018-05-18T03:29:00.916Z,8.70
2018-05-18T03:31:28.414Z,5.10
2018-05-18T03:33:55.928Z,7.17
2018-05-18T03:36:23.382Z,5.57
2018-05-18T03:38:50.844Z,6.57
2018-05-18T03:41:18.304Z,7.00
2018-05-18T03:43:45.763Z,6.63
2018-05-18T03:46:13.252Z,7.20
2018-05-18T03:48:40.812Z,6.83
2018-05-18T03:51:09.087Z,6.87
2018-05-18T03:53:36.648Z,7.10
2018-05-18T03:56:04.095Z,7.40
2018-05-18T03:58:31.544Z,6.10
2018-05-18T04:00:59.017Z,7.50
2018-05-18T04:03:38.364Z,6.80
2018-05-18T04:06:17.791Z,6.77
2018-05-18T04:08:53.508Z,6.87
2018-05-18T04:11:20.964Z,8.47
2018-05-18T04:13:48.463Z,5.37
2018-05-18T04:16:15.931Z,6.80
2018-05-18T04:18:43.380Z,6.40
2018-05-18T04:21:10.831Z,6.10
2018-05-18T04:23:38.360Z,6.67
2018-05-18T04:26:06.461Z,6.57
2018-05-18T04:28:33.915Z,6.33
2018-05-18T04:31:01.380Z,7.13
2018-05-18T04:33:28.926Z,6.97
2018-05-18T04:35:56.385Z,6.80
2018-05-18T04:38:23.848Z,7.13
2018-05-18T04:40:51.285Z,7.40
2018-05-18T04:43:18.900Z,8.00
2018-05-18T04:45:46.311Z,8.87
2018-05-18T04:48:13.761Z,7.63
2018-05-18T04:50:41.328Z,9.20
2018-05-18T04:53:08.887Z,7.27
2018-05-18T04:55:36.361Z,8.03
2018-05-18T04:58:03.813Z,7.23
2018-05-18T05:00:31.273Z,7.80
2018-05-18T05:02:58.733Z,7.17
2018-05-18T05:05:26.982Z,8.20
2018-05-18T05:07:54.407Z,6.93
2018-05-18T05:10:21.869Z,6.53
2018-05-18T05:12:49.362Z,7.77
2018-05-18T05:15:16.829Z,7.00
2018-05-18T05:17:44.300Z,7.10
2018-05-18T05:20:12.522Z,7.07
2018-05-18T05:22:39.992Z,6.80
2018-05-18T05:25:07.444Z,6.40
2018-05-18T05:27:34.905Z,6.80
2018-05-18T05:30:02.379Z,6.30
2018-05-18T05:32:29.835Z,5.73
2018-05-18T05:34:57.292Z,8.90
2018-05-18T05:37:24.849Z,7.23
2018-05-18T05:39:52.404Z,6.33
2018-05-18T05:42:19.872Z,7.20
2018-05-18T05:44:48.848Z,6.80
2018-05-18T05:47:16.320Z,6.80
2018-05-18T05:49:43.785Z,6.50
2018-05-18T05:52:11.348Z,6.80
2018-05-18T05:54:39.580Z,6.63
2018-05-18T05:57:07.061Z,5.20
2018-05-18T05:59:34.560Z,5.20
2018-05-18T06:02:02.012Z,5.43
2018-05-18T06:04:29.487Z,5.57
2018-05-18T06:06:56.945Z,5.50
2018-05-18T06:09:24.401Z,4.90
2018-05-18T06:11:51.871Z,5.27
2018-05-18T06:14:19.332Z,5.80
2018-05-18T06:16:46.795Z,6.30
2018-05-18T06:19:14.268Z,5.40
2018-05-18T06:21:41.736Z,5.97
2018-05-18T06:24:09.200Z,6.20
2018-05-18T06:26:36.657Z,6.20
2018-05-18T06:29:04.120Z,5.27
2018-05-18T06:31:32.358Z,7.40
2018-05-18T06:33:59.835Z,5.27
2018-05-18T06:36:27.301Z,4.23
2018-05-18T06:38:55.547Z,4.33
2018-05-18T06:41:23.016Z,4.57
2018-05-18T06:43:50.449Z,5.10
2018-05-18T06:46:17.922Z,4.90
2018-05-18T06:48:45.373Z,4.87
2018-05-18T06:51:12.832Z,4.83
2018-05-18T06:53:40.305Z,4.83
2018-05-18T06:56:07.760Z,5.67
2018-05-18T06:58:35.225Z,4.73
2018-05-18T07:01:02.687Z,4.93
2018-05-18T07:03:30.145Z,4.77
2018-05-18T07:05:58.384Z,5.33
2018-05-18T07:08:25.876Z,4.97
2018-05-18T07:10:53.352Z,5.23
2018-05-18T07:13:20.806Z,5.40
2018-05-18T07:15:49.033Z,4.27
2018-05-18T07:18:16.505Z,4.57
2018-05-18T07:20:43.971Z,5.07
2018-05-18T07:23:11.432Z,4.17
2018-05-18T07:25:38.896Z,4.60
2018-05-18T07:28:07.124Z,4.37
2018-05-18T07:30:34.592Z,4.77
2018-05-18T07:33:02.069Z,4.43
2018-05-18T07:35:29.521Z,5.57
2018-05-18T07:37:56.982Z,5.00
2018-05-18T07:40:24.455Z,3.60
2018-05-18T07:42:52.698Z,4.67
2018-05-18T07:45:20.172Z,6.27
2018-05-18T07:47:47.624Z,4.13
2018-05-18T07:50:15.274Z,5.33
2018-05-18T07:52:42.653Z,4.23
2018-05-18T07:55:10.109Z,3.70
2018-05-18T07:57:37.574Z,4.60
2018-05-18T08:00:05.802Z,4.90
2018-05-18T08:02:33.258Z,3.97
2018-05-18T08:05:00.728Z,4.67
2018-05-18T08:07:28.193Z,4.70
2018-05-18T08:09:55.650Z,5.27
2018-05-18T08:12:23.170Z,4.80
2018-05-18T08:14:50.612Z,5.57
2018-05-18T08:17:18.082Z,4.93
2018-05-18T08:19:45.543Z,5.40
2018-05-18T08:22:13.020Z,4.73
2018-05-18T08:24:40.486Z,4.00
2018-05-18T08:27:19.704Z,5.87
2018-05-18T08:29:47.160Z,4.17
2018-05-18T08:32:14.623Z,5.60
2018-05-18T08:34:42.089Z,5.70
2018-05-18T08:37:09.556Z,5.93
2018-05-18T08:39:37.018Z,4.20
2018-05-18T08:42:04.488Z,5.23
2018-05-18T08:44:32.728Z,4.27
2018-05-18T08:47:00.185Z,5.50
2018-05-18T08:49:27.658Z,4.07
2018-05-18T08:51:55.130Z,4.90
2018-05-18T08:54:22.598Z,5.13
2018-05-18T08:56:50.857Z,4.20
2018-05-18T08:59:19.329Z,4.83
2018-05-18T09:01:46.805Z,4.93
2018-05-18T09:04:15.376Z,4.90
2018-05-18T09:06:42.857Z,5.13
2018-05-18T09:09:11.205Z,4.67
2018-05-18T09:11:38.663Z,5.00
2018-05-18T09:14:06.128Z,5.27
2018-05-18T09:16:33.600Z,4.20
2018-05-18T09:19:01.834Z,5.57
2018-05-18T09:21:29.305Z,4.60
2018-05-18T09:23:56.767Z,5.67
2018-05-18T09:26:24.237Z,4.30
2018-05-18T09:28:51.688Z,4.27
2018-05-18T09:31:19.153Z,4.50
2018-05-18T09:33:47.476Z,5.60
2018-05-18T09:36:14.888Z,4.57
2018-05-18T09:38:43.110Z,4.57
2018-05-18T09:41:10.572Z,4.33
2018-05-18T09:43:38.045Z,5.50
2018-05-18T09:46:05.505Z,5.90
2018-05-18T09:48:32.972Z,5.10
2018-05-18T09:51:00.526Z,5.17
2018-05-18T09:53:27.984Z,4.67
2018-05-18T09:55:55.466Z,5.30
2018-05-18T09:58:23.696Z,5.40
2018-05-18T10:00:51.152Z,5.70
2018-05-18T10:03:18.636Z,5.10
2018-05-18T10:05:46.112Z,5.00
2018-05-18T10:08:14.341Z,5.27
2018-05-18T10:10:41.800Z,5.17
2018-05-18T10:13:09.273Z,4.83
2018-05-18T10:15:36.837Z,5.37
2018-05-18T10:18:04.300Z,4.90
2018-05-18T10:20:32.567Z,6.40
2018-05-18T10:23:00.020Z,5.33
2018-05-18T10:25:27.487Z,5.60
2018-05-18T10:27:55.764Z,5.00
2018-05-18T10:30:29.210Z,4.43
2018-05-18T10:32:56.673Z,6.00
2018-05-18T10:35:24.123Z,4.13
2018-05-18T10:37:51.609Z,6.43
2018-05-18T10:40:19.077Z,5.80
2018-05-18T10:42:46.679Z,5.03
2018-05-18T10:45:14.151Z,6.03
2018-05-18T10:47:41.602Z,5.53
2018-05-18T10:50:09.061Z,5.57
2018-05-18T10:52:36.565Z,5.67
2018-05-18T10:55:05.539Z,5.13
2018-05-18T10:57:32.999Z,4.60
2018-05-18T11:00:00.468Z,5.33
2018-05-18T11:02:27.929Z,4.87
2018-05-18T11:04:55.396Z,4.80
2018-05-18T11:07:23.660Z,5.10
2018-05-18T11:09:51.225Z,5.53
2018-05-18T11:12:18.717Z,4.57
2018-05-18T11:14:46.164Z,5.37
2018-05-18T11:17:13.623Z,5.50
2018-05-18T11:19:41.101Z,5.97
2018-05-18T11:22:08.581Z,5.30
2018-05-18T11:24:36.094Z,5.50
2018-05-18T11:27:03.497Z,4.73
2018-05-18T11:29:30.960Z,4.70
2018-05-18T11:31:58.428Z,5.00
2018-05-18T11:34:25.990Z,4.50
2018-05-18T11:36:54.213Z,5.50
2018-05-18T11:39:21.720Z,4.33
2018-05-18T11:41:49.188Z,4.60
2018-05-18T11:44:16.680Z,5.10
2018-05-18T11:46:44.146Z,5.60
2018-05-18T11:49:11.616Z,7.33
2018-05-18T11:51:39.782Z,6.40
2018-05-18T11:54:07.242Z,7.17
2018-05-18T11:56:34.700Z,5.67
2018-05-18T11:59:02.152Z,4.80
2018-05-18T12:01:29.621Z,4.40
2018-05-18T12:03:57.091Z,4.93
2018-05-18T12:06:24.560Z,3.93
2018-05-18T12:08:52.013Z,4.60
2018-05-18T12:11:19.484Z,4.50
2018-05-18T12:13:47.025Z,5.17
2018-05-18T12:16:14.486Z,5.20
2018-05-18T12:18:41.955Z,4.10
2018-05-18T12:21:09.433Z,4.20
2018-05-18T12:23:37.668Z,5.60
2018-05-18T12:26:05.209Z,5.63
2018-05-18T12:28:32.651Z,5.60
2018-05-18T12:31:00.107Z,5.63
2018-05-18T12:33:27.562Z,4.30
2018-05-18T12:35:55.020Z,4.30
2018-05-18T12:38:22.498Z,4.40
2018-05-18T12:40:49.942Z,3.73
2018-05-18T12:43:17.808Z,4.33
2018-05-18T12:45:45.263Z,3.90
2018-05-18T12:48:12.733Z,4.77
2018-05-18T12:50:40.201Z,4.43
2018-05-18T12:53:07.652Z,4.97
2018-05-18T12:55:35.137Z,3.53
2018-05-18T12:58:02.596Z,4.77
2018-05-18T13:00:30.048Z,4.70
2018-05-18T13:02:57.513Z,5.43
2018-05-18T13:05:25.732Z,4.20
2018-05-18T13:07:53.196Z,3.70
2018-05-18T13:10:20.672Z,3.50
2018-05-18T13:12:48.125Z,4.40
2018-05-18T13:15:15.586Z,4.63
2018-05-18T13:17:43.064Z,4.00
2018-05-18T13:20:10.524Z,4.97
2018-05-18T13:22:37.987Z,3.63
2018-05-18T13:25:05.473Z,4.30
2018-05-18T13:27:33.681Z,3.50
2018-05-18T13:30:01.145Z,3.93
2018-05-18T13:32:28.612Z,4.00
2018-05-18T13:34:56.174Z,4.50
2018-05-18T13:37:23.641Z,3.60
2018-05-18T13:39:51.110Z,3.57
2018-05-18T13:42:19.328Z,4.07
2018-05-18T13:44:46.808Z,4.53
2018-05-18T13:47:15.040Z,3.93
2018-05-18T13:49:42.513Z,4.57
2018-05-18T13:52:09.973Z,3.80
2018-05-18T13:54:37.432Z,4.40
2018-05-18T13:57:04.967Z,3.83
2018-05-18T13:59:32.385Z,3.97
2018-05-18T14:01:59.865Z,4.30
2018-05-18T14:04:28.100Z,2.87
2018-05-18T14:06:55.584Z,3.40
2018-05-18T14:09:23.818Z,3.20
2018-05-18T14:11:51.268Z,3.60
2018-05-18T14:14:18.747Z,4.20
2018-05-18T14:16:46.318Z,4.10
2018-05-18T14:19:15.309Z,3.33
2018-05-18T14:21:42.779Z,3.97
2018-05-18T14:24:10.248Z,3.83
2018-05-18T14:26:38.496Z,3.97
2018-05-18T14:29:05.977Z,3.20
2018-05-18T14:31:34.198Z,4.43
2018-05-18T14:34:01.667Z,3.53
2018-05-18T14:36:29.124Z,3.60
2018-05-18T14:38:56.590Z,3.93
2018-05-18T14:41:24.063Z,3.40
2018-05-18T14:43:51.529Z,4.47
2018-05-18T14:46:18.993Z,4.27
2018-05-18T14:48:47.225Z,3.77
2018-05-18T14:51:14.856Z,4.30
2018-05-18T14:53:42.168Z,4.10
2018-05-18T14:56:09.645Z,4.30
2018-05-18T14:58:37.892Z,4.90
2018-05-18T15:01:05.354Z,4.17
2018-05-18T15:03:32.899Z,4.70
2018-05-18T15:06:00.377Z,4.27
2018-05-18T15:08:27.820Z,4.60
2018-05-18T15:10:55.422Z,4.00
2018-05-18T15:13:22.853Z,4.40
2018-05-18T15:15:51.072Z,4.17
2018-05-18T15:18:18.535Z,3.13
2018-05-18T15:20:46.082Z,4.40
2018-05-18T15:23:13.544Z,4.57
2018-05-18T15:25:41.021Z,4.40
2018-05-18T15:28:08.529Z,3.83
2018-05-18T15:30:36.756Z,4.43
2018-05-18T15:33:04.208Z,3.80
2018-05-18T15:35:31.686Z,4.67
2018-05-18T15:37:59.916Z,4.23
2018-05-18T15:40:27.385Z,3.90
2018-05-18T15:42:54.845Z,5.60
2018-05-18T15:45:22.311Z,4.67
2018-05-18T15:47:49.780Z,4.77
2018-05-18T15:50:17.249Z,4.50
2018-05-18T15:52:44.713Z,4.30
2018-05-18T15:55:12.201Z,4.73
2018-05-18T15:57:39.653Z,4.90
2018-05-18T16:00:07.142Z,4.33
2018-05-18T16:02:34.600Z,4.30
2018-05-18T16:05:02.068Z,4.70
2018-05-18T16:07:29.552Z,3.80
2018-05-18T16:09:57.004Z,3.53
2018-05-18T16:12:24.465Z,3.50
2018-05-18T16:14:51.948Z,3.13
2018-05-18T16:17:19.409Z,5.07
2018-05-18T16:19:46.870Z,3.40
2018-05-18T16:22:14.341Z,5.10
2018-05-18T16:24:41.808Z,3.60
2018-05-18T16:27:09.260Z,3.60
2018-05-18T16:29:36.733Z,3.40
2018-05-18T16:32:04.217Z,3.90
2018-05-18T16:34:31.671Z,3.63
2018-05-18T16:36:59.156Z,3.40
2018-05-18T16:39:26.628Z,3.60
2018-05-18T16:41:54.080Z,3.90
2018-05-18T16:44:21.548Z,4.27
2018-05-18T16:46:49.008Z,4.80
2018-05-18T16:49:16.988Z,3.60
2018-05-18T16:51:44.448Z,3.77
2018-05-18T16:54:11.925Z,3.77
2018-05-18T16:56:39.388Z,4.60
2018-05-18T16:59:06.847Z,4.43
2018-05-18T17:01:34.326Z,3.80
2018-05-18T17:04:02.563Z,4.17
2018-05-18T17:06:30.031Z,4.43
2018-05-18T17:08:57.493Z,3.80
2018-05-18T17:11:24.988Z,3.97
2018-05-18T17:13:52.460Z,3.37
2018-05-18T17:16:19.928Z,3.90
2018-05-18T17:18:47.375Z,3.80
2018-05-18T17:21:14.847Z,4.10
2018-05-18T17:23:42.328Z,4.07
2018-05-18T17:26:09.796Z,5.23
2018-05-18T17:28:37.257Z,4.00
2018-05-18T17:31:05.480Z,3.93
2018-05-18T17:33:32.951Z,3.93
2018-05-18T17:36:00.413Z,3.80
2018-05-18T17:38:28.793Z,3.60
2018-05-18T17:40:56.265Z,3.23
2018-05-18T17:43:23.726Z,3.50
2018-05-18T17:45:51.192Z,3.67
2018-05-18T17:48:18.648Z,3.13
2018-05-18T17:50:46.116Z,3.57
2018-05-18T17:53:14.360Z,3.20
2018-05-18T17:55:41.807Z,3.30
2018-05-18T17:58:09.265Z,3.80
2018-05-18T18:00:36.736Z,3.80
2018-05-18T18:03:04.280Z,3.30
2018-05-18T18:05:31.652Z,3.47
2018-05-18T18:07:59.158Z,3.73
2018-05-18T18:10:26.569Z,3.97
2018-05-18T18:12:54.026Z,4.23
2018-05-18T18:15:21.501Z,3.00
2018-05-18T18:17:49.793Z,3.60
2018-05-18T18:20:17.245Z,3.90
2018-05-18T18:22:45.484Z,3.50
2018-05-18T18:25:12.942Z,4.93
2018-05-18T18:27:40.408Z,3.67
2018-05-18T18:30:07.881Z,3.77
2018-05-18T18:32:36.101Z,3.50
2018-05-18T18:35:03.589Z,3.40
2018-05-18T18:37:31.057Z,3.20
2018-05-18T18:39:58.521Z,2.93
2018-05-18T18:42:26.744Z,3.20
2018-05-18T18:44:54.209Z,3.80
2018-05-18T18:47:21.667Z,3.23
2018-05-18T18:49:49.140Z,3.90
2018-05-18T18:52:18.158Z,4.87
2018-05-18T18:54:46.383Z,3.60
2018-05-18T18:57:13.849Z,4.33
2018-05-18T18:59:41.322Z,3.80
2018-05-18T19:02:08.788Z,3.20
2018-05-18T19:04:36.251Z,3.50
2018-05-18T19:07:03.717Z,4.47
2018-05-18T19:09:31.943Z,4.23
2018-05-18T19:11:59.414Z,4.67
2018-05-18T19:14:26.891Z,5.20
2018-05-18T19:16:54.352Z,5.60
2018-05-18T19:19:21.821Z,5.20
2018-05-18T19:21:50.061Z,4.30
2018-05-18T19:24:18.359Z,4.57
2018-05-18T19:26:45.793Z,5.20
2018-05-18T19:29:13.331Z,4.20
2018-05-18T19:31:40.736Z,5.43
2018-05-18T19:34:08.965Z,4.80
2018-05-18T19:36:36.447Z,4.73
2018-05-18T19:39:03.893Z,4.30
2018-05-18T19:41:31.362Z,4.23
2018-05-18T19:43:58.828Z,3.93
2018-05-18T19:46:26.280Z,4.40
2018-05-18T19:48:53.753Z,4.63
2018-05-18T19:51:21.273Z,5.53
2018-05-18T19:53:48.740Z,5.00
2018-05-18T19:56:16.998Z,4.20
2018-05-18T19:58:44.471Z,4.23
2018-05-18T20:01:11.929Z,4.00
2018-05-18T20:03:40.124Z,5.50
2018-05-18T20:06:08.261Z,5.93
2018-05-18T20:08:35.730Z,5.03
2018-05-18T20:11:03.209Z,5.20
2018-05-18T20:13:30.667Z,5.80
2018-05-18T20:15:58.135Z,5.90
2018-05-18T20:18:26.352Z,6.17
2018-05-18T20:20:53.828Z,5.70
2018-05-18T20:23:21.296Z,4.23
2018-05-18T20:25:48.761Z,5.53
2018-05-18T20:28:16.217Z,5.20
2018-05-18T20:30:44.481Z,4.50
2018-05-18T20:33:11.945Z,5.43
2018-05-18T20:35:39.528Z,5.20
2018-05-18T20:38:07.057Z,6.33
2018-05-18T20:40:34.484Z,7.90
2018-05-18T20:43:01.939Z,6.10
2018-05-18T20:45:29.406Z,6.43
2018-05-18T20:47:56.876Z,6.43
2018-05-18T20:50:24.341Z,5.53
2018-05-18T20:52:51.809Z,6.07
2018-05-18T20:55:19.280Z,6.07
2018-05-18T20:57:47.512Z,6.17
2018-05-18T21:00:14.979Z,6.47
2018-05-18T21:02:42.449Z,5.47
2018-05-18T21:05:09.920Z,4.30
2018-05-18T21:07:37.369Z,5.17
2018-05-18T21:10:04.857Z,5.40
2018-05-18T21:12:32.327Z,6.30
2018-05-18T21:14:59.788Z,6.43
2018-05-18T21:17:27.241Z,6.17
2018-05-18T21:19:54.726Z,8.10
2018-05-18T21:22:22.480Z,7.53
2018-05-18T21:24:49.946Z,6.23
2018-05-18T21:27:17.817Z,6.50
2018-05-18T21:29:45.292Z,6.97
2018-05-18T21:32:12.770Z,7.03
2018-05-18T21:34:40.989Z,6.50
2018-05-18T21:37:08.474Z,5.20
2018-05-18T21:39:35.930Z,5.33
2018-05-18T21:42:03.406Z,5.10
2018-05-18T21:44:30.865Z,4.73
2018-05-18T21:46:58.317Z,4.60
2018-05-18T21:49:25.822Z,3.97
2018-05-18T21:51:53.294Z,4.37
2018-05-18T21:54:20.747Z,3.37
2018-05-18T21:56:48.220Z,4.37
2018-05-18T21:59:15.677Z,4.27
2018-05-18T22:01:43.135Z,5.07
2018-05-18T22:04:10.605Z,5.53
2018-05-18T22:06:38.081Z,6.03
2018-05-18T22:09:06.447Z,6.40
2018-05-18T22:11:33.912Z,7.10
2018-05-18T22:14:01.365Z,7.67
2018-05-18T22:16:28.838Z,7.60
2018-05-18T22:18:57.067Z,8.03
2018-05-18T22:21:24.532Z,7.30
2018-05-18T22:23:52.004Z,9.40
2018-05-18T22:26:19.462Z,7.67
2018-05-18T22:28:46.929Z,7.50
2018-05-18T22:31:14.385Z,8.10
2018-05-18T22:33:42.612Z,6.43
2018-05-18T22:36:10.080Z,6.10
2018-05-18T22:38:37.546Z,5.90
2018-05-18T22:41:04.997Z,6.00
2018-05-18T22:43:32.465Z,5.70
2018-05-18T22:45:59.929Z,6.50
2018-05-18T22:48:27.483Z,6.20
2018-05-18T22:50:54.944Z,7.73
2018-05-18T22:53:22.412Z,9.20
2018-05-18T22:55:49.869Z,9.50
2018-05-18T22:58:17.417Z,9.50
2018-05-18T23:00:44.889Z,8.53
2018-05-18T23:03:13.107Z,7.40
2018-05-18T23:05:40.580Z,8.00
2018-05-18T23:08:08.049Z,6.73
2018-05-18T23:10:35.506Z,8.17
2018-05-18T23:13:02.973Z,7.60
2018-05-18T23:15:30.436Z,8.20
2018-05-18T23:17:57.996Z,11.40
2018-05-18T23:20:25.484Z,15.47
2018-05-18T23:22:52.946Z,14.80
2018-05-18T23:25:20.402Z,17.97
2018-05-18T23:27:47.875Z,15.00
2018-05-18T23:30:15.381Z,13.83
2018-05-18T23:32:42.856Z,13.97
2018-05-18T23:35:11.079Z,12.70
2018-05-18T23:37:38.571Z,12.20
2018-05-18T23:40:06.029Z,12.70
2018-05-18T23:42:33.484Z,15.03
2018-05-18T23:45:00.952Z,14.27
2018-05-18T23:47:29.196Z,12.90
2018-05-18T23:49:56.652Z,12.70
2018-05-18T23:52:24.129Z,13.90
2018-05-18T23:54:51.588Z,13.50
2018-05-18T23:57:19.136Z,15.77
2018-05-18T23:59:46.593Z,18.57
